createdAt,value
2017-04-23T05:35:31.372Z,966.39
2017-04-23T05:36:11.955Z,966.41
2017-04-23T05:36:52.966Z,966.4
2017-04-23T05:37:33.541Z,966.41
2017-04-23T05:38:14.526Z,966.43
2017-04-23T05:38:55.423Z,966.45
2017-04-23T05:39:36.434Z,966.44
2017-04-23T05:40:17.016Z,966.44
2017-04-23T05:40:57.584Z,966.46
2017-04-23T05:41:38.161Z,966.46
2017-04-23T05:42:18.733Z,966.49
2017-04-23T05:42:59.312Z,966.45
2017-04-23T05:43:39.891Z,966.49
2017-04-23T05:44:20.449Z,966.47
2017-04-23T05:45:01.038Z,966.48
2017-04-23T05:45:41.604Z,966.47
2017-04-23T05:46:22.179Z,966.47
2017-04-23T05:47:02.774Z,966.46
2017-04-23T05:47:43.343Z,966.45
2017-04-23T05:48:23.914Z,966.5
2017-04-23T05:49:04.493Z,966.5
2017-04-23T05:49:45.075Z,966.49
2017-04-23T05:50:25.656Z,966.49
2017-04-23T05:51:06.244Z,966.52
2017-04-23T05:51:46.819Z,966.54
2017-04-23T05:52:27.402Z,966.53
2017-04-23T05:53:07.981Z,966.55
2017-04-23T05:53:48.546Z,966.54
2017-04-23T05:54:29.118Z,966.57
2017-04-23T05:55:09.712Z,966.59
2017-04-23T05:55:50.285Z,966.61
2017-04-23T05:56:30.868Z,966.61
2017-04-23T05:57:11.447Z,966.65
2017-04-23T05:57:52.023Z,966.63
2017-04-23T05:58:32.601Z,966.61
2017-04-23T05:59:13.177Z,966.62
2017-04-23T05:59:53.759Z,966.6
2017-04-23T06:00:34.336Z,966.6
2017-04-23T06:01:14.928Z,966.62
2017-04-23T06:01:55.515Z,966.6
2017-04-23T06:02:36.091Z,966.59
2017-04-23T06:03:16.673Z,966.57
2017-04-23T06:03:57.273Z,966.61
2017-04-23T06:04:37.854Z,966.61
2017-04-23T06:05:20.168Z,966.6
2017-04-23T06:06:00.747Z,966.57
2017-04-23T06:06:41.326Z,966.56
2017-04-23T06:07:21.902Z,966.55
2017-04-23T06:08:02.483Z,966.58
2017-04-23T06:08:43.062Z,966.59
2017-04-23T06:09:23.651Z,966.6
2017-04-23T06:10:04.223Z,966.57
2017-04-23T06:10:44.790Z,966.55
2017-04-23T06:11:25.379Z,966.58
2017-04-23T06:12:05.946Z,966.58
2017-04-23T06:12:46.523Z,966.61
2017-04-23T06:13:27.106Z,966.61
2017-04-23T06:14:07.680Z,966.61
2017-04-23T06:14:48.256Z,966.6
2017-04-23T06:15:28.836Z,966.62
2017-04-23T06:16:09.413Z,966.67
2017-04-23T06:16:49.987Z,966.64
2017-04-23T06:17:30.571Z,966.62
2017-04-23T06:18:11.157Z,966.65
2017-04-23T06:18:51.740Z,966.65
2017-04-23T06:19:32.321Z,966.64
2017-04-23T06:20:12.902Z,966.63
2017-04-23T06:20:53.477Z,966.6
2017-04-23T06:21:34.054Z,966.62
2017-04-23T06:22:14.633Z,966.61
2017-04-23T06:22:55.213Z,966.65
2017-04-23T06:23:35.787Z,966.63
2017-04-23T06:24:16.373Z,966.63
2017-04-23T06:24:56.949Z,966.68
2017-04-23T06:25:37.527Z,966.68
2017-04-23T06:26:18.356Z,966.7
2017-04-23T06:26:59.038Z,966.7
2017-04-23T06:27:39.824Z,966.71
2017-04-23T06:28:20.403Z,966.7
2017-04-23T06:29:01.145Z,966.7
2017-04-23T06:29:42.114Z,966.68
2017-04-23T06:30:22.758Z,966.72
2017-04-23T06:31:03.452Z,966.68
2017-04-23T06:31:44.036Z,966.7
2017-04-23T06:32:24.831Z,966.72
2017-04-23T06:33:05.659Z,966.76
2017-04-23T06:33:46.562Z,966.77
2017-04-23T06:34:27.139Z,966.73
2017-04-23T06:35:07.792Z,966.74
2017-04-23T06:35:48.373Z,966.69
2017-04-23T06:36:29.309Z,966.73
2017-04-23T06:37:10.000Z,966.73
2017-04-23T06:37:50.643Z,966.67
2017-04-23T06:38:31.405Z,966.72
2017-04-23T06:39:12.334Z,966.71
2017-04-23T06:39:53.080Z,966.73
2017-04-23T06:40:33.962Z,966.74
2017-04-23T06:41:15.022Z,966.74
2017-04-23T06:41:55.690Z,966.74
2017-04-23T06:42:36.601Z,966.72
2017-04-23T06:43:17.625Z,966.75
2017-04-23T06:43:58.418Z,966.75
2017-04-23T06:44:39.600Z,966.74
2017-04-23T06:45:21.202Z,966.75
2017-04-23T06:46:01.981Z,966.75
2017-04-23T06:46:42.563Z,966.76
2017-04-23T06:47:23.416Z,966.72
2017-04-23T06:48:04.293Z,966.74
2017-04-23T06:48:45.421Z,966.76
2017-04-23T06:49:26.308Z,966.76
2017-04-23T06:50:07.605Z,966.73
2017-04-23T06:50:48.562Z,966.76
2017-04-23T06:51:29.203Z,966.76
2017-04-23T06:52:10.180Z,966.76
2017-04-23T06:52:51.133Z,966.76
2017-04-23T06:53:32.155Z,966.78
2017-04-23T06:54:13.102Z,966.77
2017-04-23T06:54:54.001Z,966.78
2017-04-23T06:55:34.869Z,966.75
2017-04-23T06:56:16.400Z,966.78
2017-04-23T06:56:57.789Z,966.8
2017-04-23T06:57:38.548Z,966.78
2017-04-23T06:58:19.120Z,966.79
2017-04-23T06:58:59.704Z,966.77
2017-04-23T06:59:40.279Z,966.8
2017-04-23T07:00:21.361Z,966.81
2017-04-23T07:01:01.940Z,966.8
2017-04-23T07:01:42.730Z,966.8
2017-04-23T07:02:23.491Z,966.81
2017-04-23T07:03:04.072Z,966.8
2017-04-23T07:03:44.719Z,966.81
2017-04-23T07:04:25.301Z,966.83
2017-04-23T07:05:05.884Z,966.86
2017-04-23T07:05:46.469Z,966.83
2017-04-23T07:06:27.679Z,966.78
2017-04-23T07:07:08.256Z,966.81
2017-04-23T07:07:49.146Z,966.79
2017-04-23T07:08:29.955Z,966.81
2017-04-23T07:09:10.536Z,966.8
2017-04-23T07:09:51.396Z,966.78
2017-04-23T07:10:32.181Z,966.81
2017-04-23T07:11:13.384Z,966.91
2017-04-23T07:11:53.962Z,966.91
2017-04-23T07:12:34.748Z,966.86
2017-04-23T07:13:15.326Z,966.86
2017-04-23T07:13:55.932Z,966.87
2017-04-23T07:14:36.576Z,966.84
2017-04-23T07:15:17.163Z,966.83
2017-04-23T07:15:57.937Z,966.86
2017-04-23T07:16:38.757Z,966.85
2017-04-23T07:17:19.345Z,966.8
2017-04-23T07:18:00.292Z,966.84
2017-04-23T07:18:40.876Z,966.79
2017-04-23T07:19:21.814Z,966.81
2017-04-23T07:20:02.693Z,966.77
2017-04-23T07:20:43.622Z,966.86
2017-04-23T07:21:24.449Z,966.83
2017-04-23T07:22:05.633Z,966.8
2017-04-23T07:22:46.512Z,966.78
2017-04-23T07:23:27.323Z,966.85
2017-04-23T07:24:08.076Z,966.84
2017-04-23T07:24:48.789Z,966.83
2017-04-23T07:25:29.592Z,966.81
2017-04-23T07:26:10.776Z,966.81
2017-04-23T07:26:51.265Z,966.8
2017-04-23T07:27:32.547Z,966.83
2017-04-23T07:28:13.131Z,966.86
2017-04-23T07:28:53.768Z,966.84
2017-04-23T07:29:34.353Z,966.83
2017-04-23T07:30:15.918Z,966.84
2017-04-23T07:30:56.491Z,966.8
2017-04-23T07:31:37.537Z,966.78
2017-04-23T07:32:18.456Z,966.85
2017-04-23T07:32:59.299Z,966.84
2017-04-23T07:33:40.255Z,966.84
2017-04-23T07:34:21.681Z,966.82
2017-04-23T07:35:02.508Z,966.79
2017-04-23T07:35:43.916Z,966.79
2017-04-23T07:36:24.530Z,966.81
2017-04-23T07:37:05.172Z,966.78
2017-04-23T07:37:45.936Z,966.82
2017-04-23T07:38:26.742Z,966.82
2017-04-23T07:39:07.510Z,966.81
2017-04-23T07:39:48.411Z,966.79
2017-04-23T07:40:28.990Z,966.77
2017-04-23T07:41:09.781Z,966.8
2017-04-23T07:41:50.650Z,966.76
2017-04-23T07:42:31.481Z,966.79
2017-04-23T07:43:12.208Z,966.81
2017-04-23T07:43:53.129Z,966.85
2017-04-23T07:44:34.130Z,966.79
2017-04-23T07:45:14.824Z,966.8
2017-04-23T07:45:55.410Z,966.83
2017-04-23T07:46:36.164Z,966.82
2017-04-23T07:47:16.748Z,966.81
2017-04-23T07:47:57.652Z,966.83
2017-04-23T07:48:38.444Z,966.81
2017-04-23T07:49:19.019Z,966.83
2017-04-23T07:49:59.602Z,966.82
2017-04-23T07:50:40.477Z,966.84
2017-04-23T07:51:21.180Z,966.81
2017-04-23T07:52:02.395Z,966.81
2017-04-23T07:52:43.066Z,966.83
2017-04-23T07:53:23.648Z,966.82
2017-04-23T07:54:04.677Z,966.87
2017-04-23T07:54:45.275Z,966.81
2017-04-23T07:55:26.122Z,966.82
2017-04-23T07:56:06.704Z,966.83
2017-04-23T07:56:47.290Z,966.81
2017-04-23T07:57:28.137Z,966.87
2017-04-23T07:58:08.947Z,966.86
2017-04-23T07:58:49.529Z,966.87
2017-04-23T07:59:30.597Z,966.83
2017-04-23T08:00:11.169Z,966.86
2017-04-23T08:00:51.995Z,966.86
2017-04-23T08:01:32.953Z,966.89
2017-04-23T08:02:13.906Z,966.85
2017-04-23T08:02:54.737Z,966.84
2017-04-23T08:03:35.915Z,966.83
2017-04-23T08:04:16.979Z,966.83
2017-04-23T08:04:57.877Z,966.82
2017-04-23T08:05:38.652Z,966.87
2017-04-23T08:06:19.637Z,966.89
2017-04-23T08:07:00.457Z,966.88
2017-04-23T08:07:41.292Z,966.87
2017-04-23T08:08:22.079Z,966.89
2017-04-23T08:09:03.347Z,966.89
2017-04-23T08:09:44.424Z,966.86
2017-04-23T08:10:25.248Z,966.82
2017-04-23T08:11:06.088Z,966.84
2017-04-23T08:11:46.675Z,966.89
2017-04-23T08:12:27.510Z,966.82
2017-04-23T08:13:08.225Z,966.89
2017-04-23T08:13:49.160Z,966.89
2017-04-23T08:14:29.909Z,966.89
2017-04-23T08:15:11.268Z,966.88
2017-04-23T08:15:52.276Z,966.89
2017-04-23T08:16:33.022Z,966.9
2017-04-23T08:17:13.848Z,966.89
2017-04-23T08:17:54.606Z,966.84
2017-04-23T08:18:35.354Z,966.85
2017-04-23T08:19:16.451Z,966.86
2017-04-23T08:19:57.208Z,966.84
2017-04-23T08:20:38.288Z,966.88
2017-04-23T08:21:18.873Z,966.86
2017-04-23T08:21:59.853Z,966.85
2017-04-23T08:22:41.071Z,966.84
2017-04-23T08:23:21.695Z,966.87
2017-04-23T08:24:02.353Z,966.85
2017-04-23T08:24:43.395Z,966.86
2017-04-23T08:25:24.224Z,966.82
2017-04-23T08:26:05.031Z,966.84
2017-04-23T08:26:46.093Z,966.8
2017-04-23T08:27:27.307Z,966.79
2017-04-23T08:28:08.191Z,966.78
2017-04-23T08:28:48.773Z,966.79
2017-04-23T08:29:29.783Z,966.78
2017-04-23T08:30:10.523Z,966.78
2017-04-23T08:30:51.226Z,966.81
2017-04-23T08:31:31.899Z,966.75
2017-04-23T08:32:12.947Z,966.81
2017-04-23T08:32:53.921Z,966.81
2017-04-23T08:33:35.192Z,966.81
2017-04-23T08:34:16.046Z,966.77
2017-04-23T08:34:56.622Z,966.81
2017-04-23T08:35:37.240Z,966.76
2017-04-23T08:36:17.818Z,966.73
2017-04-23T08:36:58.580Z,966.79
2017-04-23T08:37:39.415Z,966.77
2017-04-23T08:38:20.002Z,966.75
2017-04-23T08:39:00.582Z,966.76
2017-04-23T08:39:41.566Z,966.8
2017-04-23T08:40:22.144Z,966.76
2017-04-23T08:41:02.961Z,966.8
2017-04-23T08:41:43.545Z,966.76
2017-04-23T08:42:24.131Z,966.8
2017-04-23T08:43:04.719Z,966.75
2017-04-23T08:43:45.311Z,966.78
2017-04-23T08:44:25.895Z,966.78
2017-04-23T08:45:06.470Z,966.8
2017-04-23T08:45:47.053Z,966.79
2017-04-23T08:46:27.635Z,966.78
2017-04-23T08:47:08.221Z,966.8
2017-04-23T08:47:48.805Z,966.74
2017-04-23T08:48:29.392Z,966.78
2017-04-23T08:49:09.973Z,966.77
2017-04-23T08:51:02.584Z,966.77
2017-04-23T08:51:43.144Z,966.78
2017-04-23T08:52:23.696Z,966.79
2017-04-23T08:53:04.259Z,966.78
2017-04-23T08:53:44.830Z,966.76
2017-04-23T08:54:32.248Z,966.77
2017-04-23T08:55:12.823Z,966.78
2017-04-23T08:55:53.406Z,966.83
2017-04-23T08:56:33.971Z,966.76
2017-04-23T08:57:29.356Z,966.8
2017-04-23T08:58:10.193Z,966.79
2017-04-23T08:58:50.778Z,966.77
2017-04-23T08:59:31.426Z,966.79
2017-04-23T09:00:11.999Z,966.78
2017-04-23T09:00:52.738Z,966.81
2017-04-23T09:01:33.321Z,966.76
2017-04-23T09:02:14.350Z,966.8
2017-04-23T09:02:55.409Z,966.79
2017-04-23T09:03:36.463Z,966.8
2017-04-23T09:04:17.501Z,966.81
2017-04-23T09:04:58.312Z,966.84
2017-04-23T09:05:38.891Z,966.82
2017-04-23T09:06:19.477Z,966.88
2017-04-23T09:07:00.074Z,966.85
2017-04-23T09:07:40.654Z,966.82
2017-04-23T09:08:21.240Z,966.82
2017-04-23T09:09:01.845Z,966.86
2017-04-23T09:09:42.410Z,966.82
2017-04-23T09:10:22.995Z,966.84
2017-04-23T09:11:03.578Z,966.84
2017-04-23T09:11:44.168Z,966.88
2017-04-23T09:12:24.741Z,966.82
2017-04-23T09:13:05.317Z,966.83
2017-04-23T09:13:46.335Z,966.82
2017-04-23T09:14:27.055Z,966.84
2017-04-23T09:15:08.188Z,966.82
2017-04-23T09:15:49.544Z,966.86
2017-04-23T09:16:30.427Z,966.85
2017-04-23T09:17:11.010Z,966.8
2017-04-23T09:17:51.696Z,966.85
2017-04-23T09:18:32.725Z,966.82
2017-04-23T09:19:13.417Z,966.81
2017-04-23T09:19:54.127Z,966.83
2017-04-23T09:20:34.709Z,966.8
2017-04-23T09:21:15.637Z,966.76
2017-04-23T09:21:56.221Z,966.77
2017-04-23T09:22:36.803Z,966.77
2017-04-23T09:23:17.375Z,966.8
2017-04-23T09:23:57.964Z,966.81
2017-04-23T09:24:38.747Z,966.78
2017-04-23T09:25:19.319Z,966.76
2017-04-23T09:25:59.902Z,966.77
2017-04-23T09:26:40.490Z,966.81
2017-04-23T09:27:21.058Z,966.84
2017-04-23T09:28:01.632Z,966.84
2017-04-23T09:28:42.259Z,966.8
2017-04-23T09:29:22.838Z,966.85
2017-04-23T09:30:03.689Z,966.86
2017-04-23T09:30:44.273Z,966.89
2017-04-23T09:31:24.852Z,966.82
2017-04-23T09:32:05.444Z,966.86
2017-04-23T09:32:46.025Z,966.79
2017-04-23T09:33:26.602Z,966.8
2017-04-23T09:34:07.187Z,966.81
2017-04-23T09:34:48.049Z,966.86
2017-04-23T09:35:28.643Z,966.88
2017-04-23T09:36:09.354Z,966.78
2017-04-23T09:36:49.936Z,966.8
2017-04-23T09:37:30.513Z,966.79
2017-04-23T09:38:11.101Z,966.83
2017-04-23T09:38:51.670Z,966.77
2017-04-23T09:39:32.515Z,966.76
2017-04-23T09:40:13.518Z,966.78
2017-04-23T09:40:54.093Z,966.76
2017-04-23T09:41:34.811Z,966.81
2017-04-23T09:42:15.396Z,966.81
2017-04-23T09:42:55.979Z,966.85
2017-04-23T09:43:36.555Z,966.78
2017-04-23T09:44:17.145Z,966.83
2017-04-23T09:44:57.715Z,966.85
2017-04-23T09:45:38.296Z,966.83
2017-04-23T09:46:18.884Z,966.88
2017-04-23T09:46:59.546Z,966.86
2017-04-23T09:47:40.123Z,966.88
2017-04-23T09:48:20.701Z,966.82
2017-04-23T09:49:01.282Z,966.85
2017-04-23T09:49:41.867Z,966.85
2017-04-23T09:50:22.533Z,966.84
2017-04-23T09:51:03.117Z,966.86
2017-04-23T09:51:43.695Z,966.87
2017-04-23T09:52:24.792Z,966.88
2017-04-23T09:53:05.377Z,966.88
2017-04-23T09:53:45.955Z,966.89
2017-04-23T09:54:26.536Z,966.89
2017-04-23T09:55:07.123Z,966.91
2017-04-23T09:55:47.708Z,966.94
2017-04-23T09:56:28.303Z,966.94
2017-04-23T09:57:08.925Z,966.95
2017-04-23T09:57:49.489Z,966.92
2017-04-23T09:58:30.068Z,966.97
2017-04-23T09:59:10.723Z,966.83
2017-04-23T09:59:51.361Z,966.91
2017-04-23T10:00:32.026Z,966.87
2017-04-23T10:01:13.039Z,966.9
2017-04-23T10:01:53.610Z,966.88
2017-04-23T10:02:34.191Z,966.89
2017-04-23T10:03:14.862Z,966.88
2017-04-23T10:03:55.424Z,966.9
2017-04-23T10:04:36.000Z,966.93
2017-04-23T10:05:16.561Z,966.94
2017-04-23T10:05:57.140Z,966.88
2017-04-23T10:06:37.717Z,966.88
2017-04-23T10:07:18.299Z,966.86
2017-04-23T10:07:58.880Z,966.87
2017-04-23T10:08:39.462Z,966.88
2017-04-23T10:09:20.041Z,966.87
2017-04-23T10:10:00.626Z,966.9
2017-04-23T10:10:41.209Z,966.83
2017-04-23T10:11:21.793Z,966.85
2017-04-23T10:12:02.375Z,966.85
2017-04-23T10:12:42.957Z,966.82
2017-04-23T10:13:23.538Z,966.86
2017-04-23T10:14:04.120Z,966.85
2017-04-23T10:14:44.697Z,966.84
2017-04-23T10:15:25.286Z,966.86
2017-04-23T10:16:05.870Z,966.88
2017-04-23T10:16:46.450Z,966.84
2017-04-23T10:17:27.033Z,966.81
2017-04-23T10:18:07.621Z,966.79
2017-04-23T10:18:48.207Z,966.81
2017-04-23T10:19:28.787Z,966.79
2017-04-23T10:20:09.371Z,966.77
2017-04-23T10:20:49.955Z,966.76
2017-04-23T10:21:30.537Z,966.78
2017-04-23T10:22:11.120Z,966.77
2017-04-23T10:22:51.703Z,966.76
2017-04-23T10:23:32.284Z,966.71
2017-04-23T10:24:12.866Z,966.74
2017-04-23T10:24:53.449Z,966.77
2017-04-23T10:25:34.032Z,966.74
2017-04-23T10:26:14.619Z,966.72
2017-04-23T10:26:55.202Z,966.67
2017-04-23T10:27:35.778Z,966.63
2017-04-23T10:28:16.358Z,966.63
2017-04-23T10:28:56.937Z,966.66
2017-04-23T10:29:37.514Z,966.73
2017-04-23T10:30:18.100Z,966.71
2017-04-23T10:30:58.685Z,966.72
2017-04-23T10:31:39.266Z,966.73
2017-04-23T10:32:19.851Z,966.68
2017-04-23T10:34:37.786Z,966.75
2017-04-23T10:35:18.363Z,966.66
2017-04-23T10:35:58.946Z,966.64
2017-04-23T10:36:39.531Z,966.73
2017-04-23T10:37:20.113Z,966.69
2017-04-23T10:38:00.703Z,966.75
2017-04-23T10:38:41.279Z,966.68
2017-04-23T10:39:21.855Z,966.68
2017-04-23T10:40:03.233Z,966.69
2017-04-23T10:40:44.282Z,966.67
2017-04-23T10:41:25.288Z,966.67
2017-04-23T10:42:05.434Z,966.7
2017-04-23T10:42:47.017Z,966.64
2017-04-23T10:43:27.819Z,966.68
2017-04-23T10:44:09.293Z,966.64
2017-04-23T10:44:50.294Z,966.66
2017-04-23T10:45:31.305Z,966.63
2017-04-23T10:46:12.282Z,966.65
2017-04-23T10:46:53.286Z,966.6
2017-04-23T10:47:34.238Z,966.65
2017-04-23T10:49:53.154Z,966.64
2017-04-23T10:52:12.441Z,966.64
2017-04-23T10:52:54.136Z,966.66
2017-04-23T10:53:34.244Z,966.63
2017-04-23T10:54:14.828Z,966.64
2017-04-23T10:54:55.406Z,966.59
2017-04-23T10:55:35.997Z,966.64
2017-04-23T10:56:16.571Z,966.67
2017-04-23T10:56:57.149Z,966.67
2017-04-23T10:57:37.854Z,966.65
2017-04-23T10:58:18.441Z,966.61
2017-04-23T10:58:59.002Z,966.63
2017-04-23T10:59:39.753Z,966.63
2017-04-23T11:00:20.657Z,966.64
2017-04-23T11:01:01.501Z,966.68
2017-04-23T11:01:42.096Z,966.66
2017-04-23T11:02:22.668Z,966.65
2017-04-23T11:03:03.301Z,966.62
2017-04-23T11:03:43.897Z,966.65
2017-04-23T11:04:24.483Z,966.65
2017-04-23T11:05:05.139Z,966.65
2017-04-23T11:05:45.715Z,966.63
2017-04-23T11:06:26.294Z,966.65
2017-04-23T11:07:06.885Z,966.69
2017-04-23T11:07:47.463Z,966.68
2017-04-23T11:08:28.048Z,966.67
2017-04-23T11:09:08.626Z,966.64
2017-04-23T11:09:49.208Z,966.59
2017-04-23T11:10:29.785Z,966.66
2017-04-23T11:11:10.364Z,966.65
2017-04-23T11:11:50.942Z,966.58
2017-04-23T11:12:31.521Z,966.56
2017-04-23T11:13:12.101Z,966.54
2017-04-23T11:13:52.681Z,966.53
2017-04-23T11:14:33.268Z,966.56
2017-04-23T11:15:13.853Z,966.59
2017-04-23T11:15:54.445Z,966.56
2017-04-23T11:16:35.024Z,966.57
2017-04-23T11:17:15.601Z,966.54
2017-04-23T11:17:56.181Z,966.57
2017-04-23T11:18:36.762Z,966.61
2017-04-23T11:19:17.343Z,966.58
2017-04-23T11:19:57.924Z,966.66
2017-04-23T11:20:38.507Z,966.55
2017-04-23T11:21:19.091Z,966.58
2017-04-23T11:21:59.672Z,966.56
2017-04-23T11:22:40.252Z,966.55
2017-04-23T11:23:20.859Z,966.59
2017-04-23T11:24:01.418Z,966.56
2017-04-23T11:24:42.000Z,966.56
2017-04-23T11:25:22.573Z,966.58
2017-04-23T11:26:03.160Z,966.56
2017-04-23T11:26:43.742Z,966.58
2017-04-23T11:27:24.310Z,966.59
2017-04-23T11:28:04.892Z,966.62
2017-04-23T11:28:45.465Z,966.6
2017-04-23T11:29:26.052Z,966.58
2017-04-23T11:30:06.639Z,966.6
2017-04-23T11:30:47.213Z,966.54
2017-04-23T11:31:27.801Z,966.55
2017-04-23T11:32:08.382Z,966.58
2017-04-23T11:32:48.961Z,966.54
2017-04-23T11:33:29.543Z,966.53
2017-04-23T11:34:10.128Z,966.53
2017-04-23T11:34:50.713Z,966.5
2017-04-23T11:35:31.289Z,966.52
2017-04-23T11:36:11.873Z,966.49
2017-04-23T11:36:52.590Z,966.46
2017-04-23T11:37:33.181Z,966.51
2017-04-23T11:38:14.148Z,966.49
2017-04-23T11:38:55.292Z,966.53
2017-04-23T11:39:36.139Z,966.51
2017-04-23T11:40:16.717Z,966.49
2017-04-23T11:40:57.315Z,966.5
2017-04-23T11:41:38.105Z,966.49
2017-04-23T11:42:18.937Z,966.52
2017-04-23T11:43:00.122Z,966.49
2017-04-23T11:43:40.908Z,966.5
2017-04-23T11:44:21.486Z,966.5
2017-04-23T11:45:02.097Z,966.5
2017-04-23T11:45:42.809Z,966.51
2017-04-23T11:46:23.392Z,966.5
2017-04-23T11:47:03.975Z,966.47
2017-04-23T11:47:44.560Z,966.44
2017-04-23T11:48:25.139Z,966.5
2017-04-23T11:49:05.724Z,966.52
2017-04-23T11:49:46.304Z,966.51
2017-04-23T11:50:26.890Z,966.47
2017-04-23T11:51:07.465Z,966.52
2017-04-23T11:51:49.187Z,966.51
2017-04-23T11:52:29.780Z,966.5
2017-04-23T11:53:10.365Z,966.51
2017-04-23T11:53:50.938Z,966.53
2017-04-23T11:54:31.525Z,966.51
2017-04-23T11:55:12.113Z,966.5
2017-04-23T11:55:52.675Z,966.53
2017-04-23T11:56:33.250Z,966.45
2017-04-23T11:57:13.856Z,966.49
2017-04-23T11:57:54.434Z,966.47
2017-04-23T11:58:34.998Z,966.48
2017-04-23T11:59:15.590Z,966.43
2017-04-23T11:59:56.153Z,966.49
2017-04-23T12:00:36.730Z,966.45
2017-04-23T12:01:17.298Z,966.44
2017-04-23T12:01:57.861Z,966.45
2017-04-23T12:02:38.429Z,966.42
2017-04-23T12:03:19.003Z,966.35
2017-04-23T12:03:59.674Z,966.39
2017-04-23T12:04:40.216Z,966.38
2017-04-23T12:05:20.788Z,966.31
2017-04-23T12:06:01.456Z,966.36
2017-04-23T12:06:42.033Z,966.36
2017-04-23T12:07:22.603Z,966.41
2017-04-23T12:08:03.173Z,966.39
2017-04-23T12:08:43.744Z,966.39
2017-04-23T12:09:24.328Z,966.34
2017-04-23T12:10:04.890Z,966.32
2017-04-23T12:10:45.465Z,966.33
2017-04-23T12:11:26.034Z,966.34
2017-04-23T12:12:06.600Z,966.29
2017-04-23T12:12:47.186Z,966.34
2017-04-23T12:13:27.771Z,966.31
2017-04-23T12:14:08.339Z,966.3
2017-04-23T12:14:48.922Z,966.36
2017-04-23T12:15:29.478Z,966.29
2017-04-23T12:16:10.049Z,966.22
2017-04-23T12:16:50.629Z,966.36
2017-04-23T12:17:31.194Z,966.39
2017-04-23T12:18:11.761Z,966.37
2017-04-23T12:18:52.331Z,966.39
2017-04-23T12:19:33.180Z,966.37
2017-04-23T12:20:13.473Z,966.29
2017-04-23T12:20:54.047Z,966.29
2017-04-23T12:21:34.624Z,966.31
2017-04-23T12:22:15.199Z,966.32
2017-04-23T12:22:55.767Z,966.24
2017-04-23T12:23:36.346Z,966.29
2017-04-23T12:24:16.997Z,966.26
2017-04-23T12:24:57.567Z,966.32
2017-04-23T12:25:38.148Z,966.31
2017-04-23T12:26:18.950Z,966.26
2017-04-23T12:26:59.542Z,966.32
2017-04-23T12:27:40.122Z,966.2
2017-04-23T12:28:20.757Z,966.18
2017-04-23T12:29:01.405Z,966.21
2017-04-23T12:29:41.986Z,966.24
2017-04-23T12:30:22.601Z,966.24
2017-04-23T12:31:03.173Z,966.23
2017-04-23T12:31:43.859Z,966.27
2017-04-23T12:32:24.443Z,966.28
2017-04-23T12:33:05.211Z,966.25
2017-04-23T12:33:45.796Z,966.3
2017-04-23T12:34:26.381Z,966.29
2017-04-23T12:35:06.959Z,966.26
2017-04-23T12:35:47.540Z,966.29
2017-04-23T12:36:28.118Z,966.3
2017-04-23T12:37:08.695Z,966.31
2017-04-23T12:37:49.281Z,966.32
2017-04-23T12:38:29.861Z,966.29
2017-04-23T12:39:10.554Z,966.32
2017-04-23T12:39:51.458Z,966.29
2017-04-23T12:40:32.611Z,966.36
2017-04-23T12:41:13.521Z,966.33
2017-04-23T12:41:54.358Z,966.27
2017-04-23T12:42:35.179Z,966.27
2017-04-23T12:43:16.163Z,966.36
2017-04-23T12:43:56.902Z,966.28
2017-04-23T12:44:37.486Z,966.27
2017-04-23T12:45:18.527Z,966.33
2017-04-23T12:45:59.147Z,966.21
2017-04-23T12:46:39.898Z,966.17
2017-04-23T12:47:20.478Z,966.26
2017-04-23T12:48:01.264Z,966.26
2017-04-23T12:48:41.985Z,966.29
2017-04-23T12:49:22.913Z,966.28
2017-04-23T12:50:03.788Z,966.28
2017-04-23T12:50:44.637Z,966.32
2017-04-23T12:51:25.488Z,966.31
2017-04-23T12:52:06.072Z,966.28
2017-04-23T12:52:46.652Z,966.3
2017-04-23T12:53:27.229Z,966.23
2017-04-23T12:54:07.812Z,966.24
2017-04-23T12:54:48.390Z,966.3
2017-04-23T12:55:28.973Z,966.18
2017-04-23T12:56:09.554Z,966.21
2017-04-23T12:56:50.137Z,966.23
2017-04-23T12:57:30.719Z,966.25
2017-04-23T12:58:11.295Z,966.29
2017-04-23T12:58:51.883Z,966.2
2017-04-23T12:59:32.465Z,966.21
2017-04-23T13:00:13.051Z,966.23
2017-04-23T13:00:53.633Z,966.23
2017-04-23T13:01:34.214Z,966.21
2017-04-23T13:02:14.791Z,966.2
2017-04-23T13:02:55.375Z,966.21
2017-04-23T13:03:35.957Z,966.18
2017-04-23T13:04:16.545Z,966.21
2017-04-23T13:04:57.115Z,966.16
2017-04-23T13:05:37.712Z,966.2
2017-04-23T13:06:18.296Z,966.16
2017-04-23T13:06:59.247Z,966.15
2017-04-23T13:07:40.097Z,966.19
2017-04-23T13:08:20.840Z,966.22
2017-04-23T13:09:01.632Z,966.23
2017-04-23T13:09:42.444Z,966.21
2017-04-23T13:10:23.229Z,966.24
2017-04-23T13:11:04.052Z,966.21
2017-04-23T13:11:44.957Z,966.22
2017-04-23T13:12:25.811Z,966.22
2017-04-23T13:13:06.636Z,966.18
2017-04-23T13:13:47.214Z,966.19
2017-04-23T13:14:27.858Z,966.19
2017-04-23T13:15:08.832Z,966.2
2017-04-23T13:15:49.720Z,966.26
2017-04-23T13:16:30.852Z,966.21
2017-04-23T13:17:11.862Z,966.24
2017-04-23T13:17:52.968Z,966.21
2017-04-23T13:18:33.622Z,966.19
2017-04-23T13:19:14.302Z,966.19
2017-04-23T13:19:55.366Z,966.18
2017-04-23T13:20:36.381Z,966.18
2017-04-23T13:21:17.999Z,966.24
2017-04-23T13:21:58.758Z,966.24
2017-04-23T13:22:39.364Z,966.25
2017-04-23T13:23:20.171Z,966.23
2017-04-23T13:24:00.805Z,966.18
2017-04-23T13:24:41.378Z,966.24
2017-04-23T13:25:22.228Z,966.23
2017-04-23T13:26:03.033Z,966.17
2017-04-23T13:26:43.819Z,966.19
2017-04-23T13:27:24.660Z,966.16
2017-04-23T13:28:05.468Z,966.25
2017-04-23T13:28:46.413Z,966.16
2017-04-23T13:29:27.241Z,966.16
2017-04-23T13:30:08.352Z,966.16
2017-04-23T13:30:49.515Z,966.14
2017-04-23T13:31:30.343Z,966.18
2017-04-23T13:32:11.043Z,966.21
2017-04-23T13:32:52.095Z,966.24
2017-04-23T13:33:33.175Z,966.2
2017-04-23T13:34:14.276Z,966.16
2017-04-23T13:34:55.291Z,966.13
2017-04-23T13:35:35.868Z,966.17
2017-04-23T13:36:16.448Z,966.11
2017-04-23T13:36:57.237Z,966.15
2017-04-23T13:37:38.208Z,966.15
2017-04-23T13:38:18.779Z,966.1
2017-04-23T13:38:59.846Z,966.09
2017-04-23T13:39:40.426Z,966.08
2017-04-23T13:40:21.076Z,966.12
2017-04-23T13:41:01.850Z,966.13
2017-04-23T13:41:42.435Z,966.06
2017-04-23T13:42:23.427Z,966.09
2017-04-23T13:43:04.300Z,966.14
2017-04-23T13:43:45.125Z,966.12
2017-04-23T13:44:25.723Z,966.04
2017-04-23T13:45:06.710Z,966.07
2017-04-23T13:45:47.658Z,966.11
2017-04-23T13:46:28.334Z,966.08
2017-04-23T13:47:08.922Z,966.04
2017-04-23T13:47:49.769Z,966.07
2017-04-23T13:48:30.555Z,966.05
2017-04-23T13:49:11.157Z,966.04
2017-04-23T13:49:51.732Z,966.06
2017-04-23T13:50:32.669Z,966.06
2017-04-23T13:51:13.608Z,966
2017-04-23T13:51:54.180Z,966.04
2017-04-23T13:52:35.037Z,966.05
2017-04-23T13:53:15.622Z,966
2017-04-23T13:53:56.499Z,966.04
2017-04-23T13:54:37.086Z,965.98
2017-04-23T13:55:17.748Z,965.99
2017-04-23T13:55:58.328Z,965.97
2017-04-23T13:56:39.347Z,966.03
2017-04-23T13:57:19.949Z,966.01
2017-04-23T13:58:00.535Z,966.06
2017-04-23T13:58:41.649Z,966.04
2017-04-23T13:59:22.517Z,966.01
2017-04-23T14:00:03.352Z,965.97
2017-04-23T14:00:43.936Z,965.97
2017-04-23T14:01:24.940Z,965.97
2017-04-23T14:02:05.843Z,965.96
2017-04-23T14:02:46.601Z,965.95
2017-04-23T14:03:27.232Z,965.96
2017-04-23T14:04:07.861Z,966.02
2017-04-23T14:04:48.433Z,966.02
2017-04-23T14:05:29.225Z,966.02
2017-04-23T14:06:10.094Z,965.98
2017-04-23T14:06:50.670Z,965.99
2017-04-23T14:07:31.249Z,965.98
2017-04-23T14:08:11.911Z,965.93
2017-04-23T14:08:52.772Z,965.89
2017-04-23T14:09:33.349Z,965.9
2017-04-23T14:10:13.947Z,965.92
2017-04-23T14:10:54.520Z,965.94